Selma, AL (36701)

3:33 AM CST on November 15, 2018 (GMT -0600)
Montgomery Regional | | Change Station
Active Advisory: Freeze Warning

Elev 220 ft 32.30 °N, 86.39 °W | Updated 11 minutes ago

Overcast
Overcast
36 °F
Feels Like 27 °F
N
14
Wind Variable Wind from NW

Today
High -- | Low -- °F
--% Chance of Precip.
Yesterday
High -- | Low -- °F
Precip. -- in
Pressure 30.18 in
Visibility 10.0 miles
Clouds Overcast 600 ft
Windchill 27 °F
Dew Point 34 °F
Humidity 93%
Rainfall 0.00 in
Snow Depth Not available.
6:17 AM 4:47 PM
Waxing Crescent, 48% visible
SPECI KMGM 150922Z AUTO 32012KT 10SM OVC006 02/01 A3018 RMK AO2 CIG 004V009 T00220011 TSNO
Pressure 30.18 in
Visibility 10.0 miles
Clouds Overcast 600 ft
Windchill 27 °F
Dew Point 34 °F
Humidity 93%
Rainfall 0.00 in
Snow Depth Not available.
6:17 AM 4:47 PM
Waxing Crescent, 48% visible
SPECI KMGM 150922Z AUTO 32012KT 10SM OVC006 02/01 A3018 RMK AO2 CIG 004V009 T00220011 TSNO

Get Your Daily Forecast Email!

Thanks for signing up!

Be on the lookout for a verification email in your inbox.

You'll start receiving severe weather alerts in your inbox..

×

10-Day Weather Forecast

Almanac

Astronomy

Nov. 15, 2018 Rise Set
Actual Time
Civil Twilight
Nautical Twilight
Astronomical Twilight
Moon
Length of Visible Light
Length of Day
Tomorrow will be .
, % of the Moon is Illuminated

Today's Extremes

State Highs State Lows

Community

WunderPhotos

Category 6

Welcome to Category 6. This is the collective home for Weather Underground's featured writeups by Dr. Jeff Masters (right), Bob Henson (left), Chris Burt, and other regular contributors.

Nearby

Air Quality

  Air Quality AQ Index Pollutant
Not available.

Snow Depth

Station Depth Elevation

Earthquake Activity

City Distance Mag. Time & Date
Minimum magnitude displayed is 2.5.

Coastal Water Temperatures

Place Temperature

Stations

Nearby Weather Stations

Station Location Temp. Windchill Dew Point Humidity Wind Precip. Elev Updated Type
                   

Watches & Warnings

Freeze Warning
Issued: 2:44 AM CST Nov. 15, 2018 – National Weather Service

... Freeze warning now in effect until 9 am CST Friday...

* temperature... lows 27 to 32 for Thursday morning, and 26 to 30
Friday morning.

* Impacts... temperatures in this range could kill sensitive
vegetation.

Precautionary/preparedness actions...

A freeze warning means sub freezing temperatures are imminent or
highly likely.